METAR stanice u blizini

 

LYBE - Beograd / Surčin, Srbija
Ažurirano: 14/07/2024 16:00
Vedro
Vedro
 Pravac vetra varies
Vetar: varies 7 km/h
Temperatura: 37°C
Tačka rose: 19°C
Vlažnost: 35%
Pritisak: 1009 hPa
Pregled: Vedro
Vidljivost: greater than 10 km
2024/07/14 14:00 LYBE 141400Z VRB04KT CAVOK 37/19 Q1009 NOSIG
LYBT - Beograd / Batajnica, Srbija
Ažurirano: 14/07/2024 16:00
Vedro
Vedro
 Pravac vetra varies
Vetar: varies 4 km/h
Temperatura: 37°C
Heat Index: 43°C
Tačka rose: 22°C
Vlažnost: 42%
Pritisak: 1009 hPa
Pregled: Vedro
Vidljivost: greater than 10 km
2024/07/14 14:00 LYBT 141400Z VRB02KT CAVOK 37/22 Q1009 NOSIG
LYVR - Vršac, Srbija
Ažurirano: 14/07/2024 16:00
Vedro
Vedro
 Pravac vetra J
Vetar: J 9 km/h
Temperatura: 39°C
Tačka rose: 14°C
Vlažnost: 23%
Pritisak: 1009 hPa
Pregled: Vedro
Vidljivost: greater than 10 km
2024/07/14 14:00 LYVR 141400Z AUTO 18005KT 140V260 CAVOK 39/14 Q1009
 
LYKV - Lađevci, Srbija
Ažurirano: 14/07/2024 16:00
Few Clouds
Few Clouds
 Pravac vetra JJI
Vetar: JJI 6 km/h
Temperatura: 38°C
Tačka rose: 15°C
Vlažnost: 25%
Pritisak: 1009 hPa
Oblaci: Few Clouds
Vidljivost: 10 km
Cloud details: Few Clouds 1524 m
2024/07/14 14:00 LYKV 141400Z 16003KT 080V220 9999 FEW050 38/15 Q1009 NOSIG
LYNI - Niš, Srbija
Ažurirano: 14/07/2024 16:00
Vedro
Vedro
 Pravac vetra varies
Vetar: varies 7 km/h
Temperatura: 39°C
Tačka rose: 14°C
Vlažnost: 23%
Pritisak: 1010 hPa
Pregled: Vedro
Vidljivost: greater than 10 km
2024/07/14 14:00 LYNI 141400Z VRB04KT CAVOK 39/14 Q1010 NOSIG
BKPR - Priština, Srbija
Ažurirano: 14/07/2024 16:00
Few Clouds
Few Clouds
 Pravac vetra varies
Vetar: varies 6 km/h
Temperatura: 36°C
Tačka rose: 14°C
Vlažnost: 27%
Pritisak: 1012 hPa
Oblaci: Few Clouds
Vidljivost: 10 km
Cloud details: Few Clouds 1524 m
2024/07/14 14:00 BKPR 141400Z VRB03KT 9999 FEW050 36/14 Q1012 NOSIG
 
LHPP - Pecs / Pogany, Hungary
Ažurirano: 14/07/2024 15:45
Vedro
Vedro
 Pravac vetra varies
Vetar: varies 6 km/h
Temperatura: 34°C
Heat Index: 36°C
Tačka rose: 20°C
Vlažnost: 44%
Pritisak: 1011 hPa
Pregled: Vedro
Vidljivost: greater than 10 km
2024/07/14 13:45 LHPP 141345Z AUTO VRB03KT CAVOK 34/20 Q1011
LHUD - Szeged, Hungary
Ažurirano: 04/07/2019 01:45
NOT Current
Vedro
Vedro
 Pravac vetra S
Vetar: S 7 km/h
Temperatura: 18°C
Tačka rose: 13°C
Vlažnost: 73%
Pritisak: 1019 hPa
Pregled: Vedro
Vidljivost: greater than 10 km
2019/07/03 23:45 LHUD 032345Z 35004KT CAVOK 18/13 Q1019
LRTR - Timisoara, Romania
Ažurirano: 14/07/2024 16:00
Vedro
Vedro
 Pravac vetra J
Vetar: J 15 km/h
Temperatura: 39°C
Tačka rose: 8°C
Vlažnost: 15%
Pritisak: 1009 hPa
Pregled: Vedro
Vidljivost: greater than 10 km
2024/07/14 14:00 LRTR 141400Z 17008KT 140V200 CAVOK 39/08 Q1009 NOSIG
 
LRCV - Craiova, Romania
Ažurirano: 14/07/2024 16:00
Vedro
Vedro
 Pravac vetra varies
Vetar: varies 7 km/h
Temperatura: 40°C
Tačka rose: 12°C
Vlažnost: 19%
Pritisak: 1010 hPa
Pregled: Vedro
Vidljivost: greater than 10 km
2024/07/14 14:00 LRCV 141400Z VRB04KT CAVOK 40/12 Q1010
LBSF - Sofia, Bulgaria
Ažurirano: 14/07/2024 16:00
Vedro
Vedro
 Pravac vetra I
Vetar: I 9 km/h
Temperatura: 34°C
Tačka rose: 9°C
Vlažnost: 21%
Pritisak: 1013 hPa
Pregled: Vedro
Vidljivost: greater than 10 km
2024/07/14 14:00 LBSF 141400Z 10005KT 070V150 CAVOK 34/09 Q1013 NOSIG
LWSK - Skoplje, Makedonija
Ažurirano: 14/07/2024 15:50
Few Clouds
Few Clouds
 Pravac vetra SSI
Vetar: SSI 13 km/h
Temperatura: 40°C
Tačka rose: 18°C
Vlažnost: 28%
Pritisak: 1009 hPa
Oblaci: Few Clouds
Vidljivost: 10 km
Cloud details: Few Clouds 1524 m
2024/07/14 13:50 LWSK 141350Z 02007KT 320V070 9999 FEW050 40/18 Q1009 NOSIG
 
LYPG - Podgorica, Crna Gora
Ažurirano: 14/07/2024 16:00
Few Clouds
Few Clouds
 Pravac vetra J
Vetar: J 15 km/h
Temperatura: 38°C
Tačka rose: 17°C
Vlažnost: 29%
Pritisak: 1009 hPa
Oblaci: Few Clouds
Vidljivost: 10 km
Cloud details: Few Clouds 1219 m
2024/07/14 14:00 LYPG 141400Z 18008KT 140V220 9999 FEW040 38/17 Q1009 NOSIG
LQSA - Sarajevo, Bosna i Hercegovina
Ažurirano: 14/07/2024 16:00
Partly Cloudy
Partly Cloudy
 Pravac vetra ZSZ
Vetar: ZSZ 22 km/h
Temperatura: 37°C
Tačka rose: 11°C
Vlažnost: 21%
Pritisak: 1012 hPa
Oblaci: Partly Cloudy
Vidljivost: 10 km
Cloud details: Partly Cloudy 1219 m
2024/07/14 14:00 LQSA 141400Z 29012KT 260V320 9999 SCT040TCU 37/11 Q1012 NOSIG
LDOS - Osijek, Hrvatksa
Ažurirano: 14/07/2024 16:00
Vedro
Vedro
 Pravac vetra varies
Vetar: varies 6 km/h
Temperatura: 34°C
Heat Index: 39°C
Tačka rose: 23°C
Vlažnost: 53%
Pritisak: 1010 hPa
Pregled: Vedro
Vidljivost: greater than 10 km
2024/07/14 14:00 LDOS 141400Z VRB03KT CAVOK 34/23 Q1010